sensor_id;sensor_type;location;lat;lon;timestamp;temperature;humidity
80230;DHT22;69540;42.136;24.742;2024-02-04T00:00:49;12.40;40.50
80230;DHT22;69540;42.136;24.742;2024-02-04T00:03:15;12.40;40.40
80230;DHT22;69540;42.136;24.742;2024-02-04T00:05:41;12.40;40.30
80230;DHT22;69540;42.136;24.742;2024-02-04T00:08:06;12.40;40.20
80230;DHT22;69540;42.136;24.742;2024-02-04T00:10:32;12.30;40.40
80230;DHT22;69540;42.136;24.742;2024-02-04T00:12:58;12.20;40.70
80230;DHT22;69540;42.136;24.742;2024-02-04T00:15:23;12.10;40.80
80230;DHT22;69540;42.136;24.742;2024-02-04T00:17:49;12.10;41.00
80230;DHT22;69540;42.136;24.742;2024-02-04T00:20:15;12.10;41.10
80230;DHT22;69540;42.136;24.742;2024-02-04T00:22:41;12.00;41.30
80230;DHT22;69540;42.136;24.742;2024-02-04T00:25:06;12.00;41.30
80230;DHT22;69540;42.136;24.742;2024-02-04T00:27:37;12.00;41.30
80230;DHT22;69540;42.136;24.742;2024-02-04T00:30:03;12.00;42.40
80230;DHT22;69540;42.136;24.742;2024-02-04T00:32:28;12.10;41.30
80230;DHT22;69540;42.136;24.742;2024-02-04T00:34:54;12.10;41.20
80230;DHT22;69540;42.136;24.742;2024-02-04T00:37:20;12.00;41.30
80230;DHT22;69540;42.136;24.742;2024-02-04T00:39:45;12.10;42.40
80230;DHT22;69540;42.136;24.742;2024-02-04T00:42:11;12.00;41.50
80230;DHT22;69540;42.136;24.742;2024-02-04T00:44:37;12.10;41.50
80230;DHT22;69540;42.136;24.742;2024-02-04T00:47:03;12.10;41.50
80230;DHT22;69540;42.136;24.742;2024-02-04T00:49:28;12.00;41.50
80230;DHT22;69540;42.136;24.742;2024-02-04T00:51:54;12.00;41.50
80230;DHT22;69540;42.136;24.742;2024-02-04T00:54:20;12.00;41.40
80230;DHT22;69540;42.136;24.742;2024-02-04T00:56:45;12.00;41.60
80230;DHT22;69540;42.136;24.742;2024-02-04T00:59:11;11.90;41.80
80230;DHT22;69540;42.136;24.742;2024-02-04T01:01:40;11.90;41.90
80230;DHT22;69540;42.136;24.742;2024-02-04T01:04:05;11.90;41.70
80230;DHT22;69540;42.136;24.742;2024-02-04T01:06:31;11.90;41.70
80230;DHT22;69540;42.136;24.742;2024-02-04T01:08:57;11.90;41.70
80230;DHT22;69540;42.136;24.742;2024-02-04T01:11:23;12.00;41.80
80230;DHT22;69540;42.136;24.742;2024-02-04T01:13:49;11.90;41.60
80230;DHT22;69540;42.136;24.742;2024-02-04T01:16:14;11.90;41.70
80230;DHT22;69540;42.136;24.742;2024-02-04T01:18:40;11.90;41.80
80230;DHT22;69540;42.136;24.742;2024-02-04T01:21:06;11.90;41.80
80230;DHT22;69540;42.136;24.742;2024-02-04T01:23:32;11.90;41.70
80230;DHT22;69540;42.136;24.742;2024-02-04T01:25:57;11.90;41.80
80230;DHT22;69540;42.136;24.742;2024-02-04T01:28:23;11.80;43.10
80230;DHT22;69540;42.136;24.742;2024-02-04T01:30:48;11.90;41.90
80230;DHT22;69540;42.136;24.742;2024-02-04T01:33:14;11.90;41.80
80230;DHT22;69540;42.136;24.742;2024-02-04T01:35:40;11.90;41.80
80230;DHT22;69540;42.136;24.742;2024-02-04T01:38:05;11.70;42.30
80230;DHT22;69540;42.136;24.742;2024-02-04T01:40:31;11.70;42.60
80230;DHT22;69540;42.136;24.742;2024-02-04T01:42:57;11.70;42.60
80230;DHT22;69540;42.136;24.742;2024-02-04T01:45:23;11.80;42.50
80230;DHT22;69540;42.136;24.742;2024-02-04T01:47:50;11.90;42.40
80230;DHT22;69540;42.136;24.742;2024-02-04T01:50:16;11.90;42.30
80230;DHT22;69540;42.136;24.742;2024-02-04T01:52:42;11.90;42.50
80230;DHT22;69540;42.136;24.742;2024-02-04T01:55:09;11.80;42.40
80230;DHT22;69540;42.136;24.742;2024-02-04T01:57:35;11.80;42.40
80230;DHT22;69540;42.136;24.742;2024-02-04T02:00:00;11.90;42.70
80230;DHT22;69540;42.136;24.742;2024-02-04T02:02:27;12.00;42.60
80230;DHT22;69540;42.136;24.742;2024-02-04T02:04:54;11.90;42.70
80230;DHT22;69540;42.136;24.742;2024-02-04T02:07:20;11.90;42.90
80230;DHT22;69540;42.136;24.742;2024-02-04T02:09:47;12.00;43.10
80230;DHT22;69540;42.136;24.742;2024-02-04T02:12:59;12.00;42.90
80230;DHT22;69540;42.136;24.742;2024-02-04T02:15:30;12.00;42.80
80230;DHT22;69540;42.136;24.742;2024-02-04T02:18:11;11.90;43.10
80230;DHT22;69540;42.136;24.742;2024-02-04T02:23:43;12.10;43.10
80230;DHT22;69540;42.136;24.742;2024-02-04T02:26:15;12.10;43.20
80230;DHT22;69540;42.136;24.742;2024-02-04T02:28:40;12.10;43.20
80230;DHT22;69540;42.136;24.742;2024-02-04T02:31:06;12.10;43.40
80230;DHT22;69540;42.136;24.742;2024-02-04T02:33:32;12.00;43.50
80230;DHT22;69540;42.136;24.742;2024-02-04T02:35:58;12.00;43.50
80230;DHT22;69540;42.136;24.742;2024-02-04T02:38:33;12.00;43.50
80230;DHT22;69540;42.136;24.742;2024-02-04T02:41:04;12.10;43.60
80230;DHT22;69540;42.136;24.742;2024-02-04T02:43:33;12.20;43.40
80230;DHT22;69540;42.136;24.742;2024-02-04T02:45:59;12.20;43.30
80230;DHT22;69540;42.136;24.742;2024-02-04T02:48:26;12.20;43.10
80230;DHT22;69540;42.136;24.742;2024-02-04T02:50:53;12.20;43.00
80230;DHT22;69540;42.136;24.742;2024-02-04T02:53:19;12.20;43.20
80230;DHT22;69540;42.136;24.742;2024-02-04T02:55:45;12.10;43.60
80230;DHT22;69540;42.136;24.742;2024-02-04T02:58:12;12.10;43.40
80230;DHT22;69540;42.136;24.742;2024-02-04T03:00:38;12.10;43.20
80230;DHT22;69540;42.136;24.742;2024-02-04T03:03:04;12.10;43.10
80230;DHT22;69540;42.136;24.742;2024-02-04T03:05:30;12.20;43.20
80230;DHT22;69540;42.136;24.742;2024-02-04T03:07:55;12.20;43.20
80230;DHT22;69540;42.136;24.742;2024-02-04T03:10:21;12.20;43.00
80230;DHT22;69540;42.136;24.742;2024-02-04T03:12:47;12.20;43.00
80230;DHT22;69540;42.136;24.742;2024-02-04T03:15:12;12.20;42.80
80230;DHT22;69540;42.136;24.742;2024-02-04T03:17:38;12.20;42.80
80230;DHT22;69540;42.136;24.742;2024-02-04T03:20:04;12.20;42.40
80230;DHT22;69540;42.136;24.742;2024-02-04T03:22:30;12.20;42.20
80230;DHT22;69540;42.136;24.742;2024-02-04T03:24:55;12.20;42.10
80230;DHT22;69540;42.136;24.742;2024-02-04T03:27:21;12.10;42.10
80230;DHT22;69540;42.136;24.742;2024-02-04T03:29:47;12.10;42.10
80230;DHT22;69540;42.136;24.742;2024-02-04T03:32:12;12.10;42.30
80230;DHT22;69540;42.136;24.742;2024-02-04T03:34:41;12.00;42.40
80230;DHT22;69540;42.136;24.742;2024-02-04T03:37:06;12.00;42.40
80230;DHT22;69540;42.136;24.742;2024-02-04T03:39:32;12.00;42.40
80230;DHT22;69540;42.136;24.742;2024-02-04T03:41:58;12.00;42.10
80230;DHT22;69540;42.136;24.742;2024-02-04T03:44:23;11.90;42.10
80230;DHT22;69540;42.136;24.742;2024-02-04T03:46:50;12.00;42.20
80230;DHT22;69540;42.136;24.742;2024-02-04T03:49:17;11.90;42.30
80230;DHT22;69540;42.136;24.742;2024-02-04T03:51:42;11.90;42.30
80230;DHT22;69540;42.136;24.742;2024-02-04T03:54:08;12.00;42.10
80230;DHT22;69540;42.136;24.742;2024-02-04T03:56:34;12.00;42.10
80230;DHT22;69540;42.136;24.742;2024-02-04T03:58:59;12.00;41.90
80230;DHT22;69540;42.136;24.742;2024-02-04T04:01:25;12.00;41.80
80230;DHT22;69540;42.136;24.742;2024-02-04T04:03:51;12.00;41.90
80230;DHT22;69540;42.136;24.742;2024-02-04T04:06:16;12.00;41.80
80230;DHT22;69540;42.136;24.742;2024-02-04T04:08:42;12.00;41.80
80230;DHT22;69540;42.136;24.742;2024-02-04T04:11:09;12.00;41.80
80230;DHT22;69540;42.136;24.742;2024-02-04T04:13:35;12.00;42.20
80230;DHT22;69540;42.136;24.742;2024-02-04T04:16:04;12.00;42.80
80230;DHT22;69540;42.136;24.742;2024-02-04T04:18:30;12.00;43.00
80230;DHT22;69540;42.136;24.742;2024-02-04T04:20:56;12.00;43.10
80230;DHT22;69540;42.136;24.742;2024-02-04T04:23:21;12.00;42.80
80230;DHT22;69540;42.136;24.742;2024-02-04T04:25:47;12.00;42.90
80230;DHT22;69540;42.136;24.742;2024-02-04T04:28:13;12.00;42.90
80230;DHT22;69540;42.136;24.742;2024-02-04T04:30:38;12.10;43.10
80230;DHT22;69540;42.136;24.742;2024-02-04T04:33:04;12.00;43.00
80230;DHT22;69540;42.136;24.742;2024-02-04T04:35:30;12.00;43.20
80230;DHT22;69540;42.136;24.742;2024-02-04T04:37:55;12.10;43.70
80230;DHT22;69540;42.136;24.742;2024-02-04T04:40:21;12.10;43.70
80230;DHT22;69540;42.136;24.742;2024-02-04T04:42:47;12.10;43.70
80230;DHT22;69540;42.136;24.742;2024-02-04T04:45:12;12.10;43.60
80230;DHT22;69540;42.136;24.742;2024-02-04T04:47:39;12.10;43.40
80230;DHT22;69540;42.136;24.742;2024-02-04T04:50:05;12.10;43.50
80230;DHT22;69540;42.136;24.742;2024-02-04T04:52:31;12.10;43.10
80230;DHT22;69540;42.136;24.742;2024-02-04T04:54:57;12.20;43.30
80230;DHT22;69540;42.136;24.742;2024-02-04T04:57:23;12.20;43.10
80230;DHT22;69540;42.136;24.742;2024-02-04T04:59:49;12.20;43.10
80230;DHT22;69540;42.136;24.742;2024-02-04T05:02:14;12.10;43.30
80230;DHT22;69540;42.136;24.742;2024-02-04T05:04:44;12.00;43.70
80230;DHT22;69540;42.136;24.742;2024-02-04T05:07:13;12.00;43.70
80230;DHT22;69540;42.136;24.742;2024-02-04T05:09:38;12.00;43.70
80230;DHT22;69540;42.136;24.742;2024-02-04T05:12:05;12.00;43.70
80230;DHT22;69540;42.136;24.742;2024-02-04T05:14:31;12.10;43.70
80230;DHT22;69540;42.136;24.742;2024-02-04T05:16:57;12.10;43.50
80230;DHT22;69540;42.136;24.742;2024-02-04T05:19:22;12.10;43.60
80230;DHT22;69540;42.136;24.742;2024-02-04T05:21:48;12.20;43.70
80230;DHT22;69540;42.136;24.742;2024-02-04T05:24:14;12.30;43.70
80230;DHT22;69540;42.136;24.742;2024-02-04T05:26:39;12.30;43.60
80230;DHT22;69540;42.136;24.742;2024-02-04T05:29:05;12.30;43.50
80230;DHT22;69540;42.136;24.742;2024-02-04T05:31:31;12.30;43.40
80230;DHT22;69540;42.136;24.742;2024-02-04T05:33:56;12.30;43.40
80230;DHT22;69540;42.136;24.742;2024-02-04T05:36:22;12.40;43.50
80230;DHT22;69540;42.136;24.742;2024-02-04T05:38:48;12.40;43.50
80230;DHT22;69540;42.136;24.742;2024-02-04T05:41:13;12.50;43.40
80230;DHT22;69540;42.136;24.742;2024-02-04T05:43:39;12.50;43.20
80230;DHT22;69540;42.136;24.742;2024-02-04T05:46:05;12.40;43.10
80230;DHT22;69540;42.136;24.742;2024-02-04T05:48:31;12.50;43.20
80230;DHT22;69540;42.136;24.742;2024-02-04T05:50:57;12.50;43.00
80230;DHT22;69540;42.136;24.742;2024-02-04T05:53:22;12.40;43.10
80230;DHT22;69540;42.136;24.742;2024-02-04T05:55:48;12.40;43.30
80230;DHT22;69540;42.136;24.742;2024-02-04T05:58:14;12.30;43.20
80230;DHT22;69540;42.136;24.742;2024-02-04T06:00:40;12.40;43.40
80230;DHT22;69540;42.136;24.742;2024-02-04T06:03:06;12.40;43.50
80230;DHT22;69540;42.136;24.742;2024-02-04T06:05:32;12.40;43.50
80230;DHT22;69540;42.136;24.742;2024-02-04T06:07:58;12.40;43.60
80230;DHT22;69540;42.136;24.742;2024-02-04T06:10:23;12.50;43.80
80230;DHT22;69540;42.136;24.742;2024-02-04T06:12:49;12.40;44.00
80230;DHT22;69540;42.136;24.742;2024-02-04T06:15:15;12.50;43.90
80230;DHT22;69540;42.136;24.742;2024-02-04T06:17:41;12.50;43.80
80230;DHT22;69540;42.136;24.742;2024-02-04T06:20:07;12.50;43.80
80230;DHT22;69540;42.136;24.742;2024-02-04T06:22:36;12.60;43.90
80230;DHT22;69540;42.136;24.742;2024-02-04T06:25:03;12.60;44.00
80230;DHT22;69540;42.136;24.742;2024-02-04T06:27:29;12.50;43.80
80230;DHT22;69540;42.136;24.742;2024-02-04T06:29:55;12.60;43.80
80230;DHT22;69540;42.136;24.742;2024-02-04T06:32:21;12.60;43.70
80230;DHT22;69540;42.136;24.742;2024-02-04T06:34:47;12.70;43.50
80230;DHT22;69540;42.136;24.742;2024-02-04T06:37:12;12.70;43.50
80230;DHT22;69540;42.136;24.742;2024-02-04T06:39:38;12.80;43.40
80230;DHT22;69540;42.136;24.742;2024-02-04T06:42:04;12.70;43.50
80230;DHT22;69540;42.136;24.742;2024-02-04T06:44:30;12.80;43.50
80230;DHT22;69540;42.136;24.742;2024-02-04T06:46:55;12.80;43.80
80230;DHT22;69540;42.136;24.742;2024-02-04T06:49:21;12.80;43.80
80230;DHT22;69540;42.136;24.742;2024-02-04T06:51:47;12.80;43.80
80230;DHT22;69540;42.136;24.742;2024-02-04T06:54:13;12.80;44.00
80230;DHT22;69540;42.136;24.742;2024-02-04T06:56:40;12.90;43.90
80230;DHT22;69540;42.136;24.742;2024-02-04T06:59:05;13.00;44.10
80230;DHT22;69540;42.136;24.742;2024-02-04T07:01:32;13.00;44.30
80230;DHT22;69540;42.136;24.742;2024-02-04T07:03:58;13.10;44.20
80230;DHT22;69540;42.136;24.742;2024-02-04T07:06:23;13.10;44.30
80230;DHT22;69540;42.136;24.742;2024-02-04T07:08:49;13.20;44.50
80230;DHT22;69540;42.136;24.742;2024-02-04T07:11:15;13.20;44.50
80230;DHT22;69540;42.136;24.742;2024-02-04T07:13:41;13.20;44.80
80230;DHT22;69540;42.136;24.742;2024-02-04T07:16:07;13.20;44.80
80230;DHT22;69540;42.136;24.742;2024-02-04T07:18:33;13.10;46.90
80230;DHT22;69540;42.136;24.742;2024-02-04T07:20:58;13.30;46.80
80230;DHT22;69540;42.136;24.742;2024-02-04T07:23:24;13.30;46.00
80230;DHT22;69540;42.136;24.742;2024-02-04T07:25:50;13.50;45.40
80230;DHT22;69540;42.136;24.742;2024-02-04T07:28:16;13.50;44.50
80230;DHT22;69540;42.136;24.742;2024-02-04T07:30:41;13.50;43.80
80230;DHT22;69540;42.136;24.742;2024-02-04T07:33:07;13.60;43.70
80230;DHT22;69540;42.136;24.742;2024-02-04T07:35:33;13.60;43.60
80230;DHT22;69540;42.136;24.742;2024-02-04T07:37:58;13.60;43.60
80230;DHT22;69540;42.136;24.742;2024-02-04T07:40:24;13.80;43.60
80230;DHT22;69540;42.136;24.742;2024-02-04T07:42:50;13.90;43.20
80230;DHT22;69540;42.136;24.742;2024-02-04T07:45:15;14.20;42.80
80230;DHT22;69540;42.136;24.742;2024-02-04T07:47:41;14.50;42.20
80230;DHT22;69540;42.136;24.742;2024-02-04T07:50:07;15.50;40.30
80230;DHT22;69540;42.136;24.742;2024-02-04T07:52:33;16.60;38.20
80230;DHT22;69540;42.136;24.742;2024-02-04T07:54:59;17.40;36.50
80230;DHT22;69540;42.136;24.742;2024-02-04T07:57:25;18.50;34.90
80230;DHT22;69540;42.136;24.742;2024-02-04T07:59:51;20.20;31.90
80230;DHT22;69540;42.136;24.742;2024-02-04T08:02:18;21.70;29.50
80230;DHT22;69540;42.136;24.742;2024-02-04T08:04:43;22.60;28.00
80230;DHT22;69540;42.136;24.742;2024-02-04T08:07:09;23.10;27.20
80230;DHT22;69540;42.136;24.742;2024-02-04T08:09:35;23.20;26.70
80230;DHT22;69540;42.136;24.742;2024-02-04T08:12:00;23.00;26.60
80230;DHT22;69540;42.136;24.742;2024-02-04T08:14:26;22.30;27.20
80230;DHT22;69540;42.136;24.742;2024-02-04T08:16:52;21.50;27.90
80230;DHT22;69540;42.136;24.742;2024-02-04T08:19:18;20.90;28.90
80230;DHT22;69540;42.136;24.742;2024-02-04T08:21:43;20.30;29.80
80230;DHT22;69540;42.136;24.742;2024-02-04T08:24:09;19.80;30.70
80230;DHT22;69540;42.136;24.742;2024-02-04T08:26:35;19.40;32.80
80230;DHT22;69540;42.136;24.742;2024-02-04T08:29:00;19.00;33.50
80230;DHT22;69540;42.136;24.742;2024-02-04T08:31:26;18.70;33.30
80230;DHT22;69540;42.136;24.742;2024-02-04T08:33:52;18.90;33.10
80230;DHT22;69540;42.136;24.742;2024-02-04T08:36:18;19.10;32.60
80230;DHT22;69540;42.136;24.742;2024-02-04T08:38:44;19.10;32.40
80230;DHT22;69540;42.136;24.742;2024-02-04T08:41:10;19.30;32.30
80230;DHT22;69540;42.136;24.742;2024-02-04T08:43:36;19.40;31.80
80230;DHT22;69540;42.136;24.742;2024-02-04T08:46:01;19.00;32.20
80230;DHT22;69540;42.136;24.742;2024-02-04T08:48:27;18.70;32.60
80230;DHT22;69540;42.136;24.742;2024-02-04T08:50:53;18.50;33.00
80230;DHT22;69540;42.136;24.742;2024-02-04T08:53:22;18.10;34.20
80230;DHT22;69540;42.136;24.742;2024-02-04T08:55:49;18.00;34.20
80230;DHT22;69540;42.136;24.742;2024-02-04T08:58:14;17.90;34.50
80230;DHT22;69540;42.136;24.742;2024-02-04T09:00:40;17.90;34.80
80230;DHT22;69540;42.136;24.742;2024-02-04T09:03:06;17.80;34.90
80230;DHT22;69540;42.136;24.742;2024-02-04T09:05:31;17.80;35.00
80230;DHT22;69540;42.136;24.742;2024-02-04T09:07:57;17.70;35.60
80230;DHT22;69540;42.136;24.742;2024-02-04T09:10:23;17.70;35.70
80230;DHT22;69540;42.136;24.742;2024-02-04T09:12:49;17.80;35.60
80230;DHT22;69540;42.136;24.742;2024-02-04T09:15:14;17.70;35.60
80230;DHT22;69540;42.136;24.742;2024-02-04T09:17:40;17.80;36.80
80230;DHT22;69540;42.136;24.742;2024-02-04T09:20:06;17.80;36.20
80230;DHT22;69540;42.136;24.742;2024-02-04T09:22:33;17.80;36.30
80230;DHT22;69540;42.136;24.742;2024-02-04T09:24:59;17.80;35.30
80230;DHT22;69540;42.136;24.742;2024-02-04T09:27:24;17.80;35.20
80230;DHT22;69540;42.136;24.742;2024-02-04T09:29:51;17.80;35.30
80230;DHT22;69540;42.136;24.742;2024-02-04T09:32:17;17.80;35.30
80230;DHT22;69540;42.136;24.742;2024-02-04T09:34:43;17.80;35.50
80230;DHT22;69540;42.136;24.742;2024-02-04T09:37:09;17.70;35.30
80230;DHT22;69540;42.136;24.742;2024-02-04T09:39:34;17.60;35.40
80230;DHT22;69540;42.136;24.742;2024-02-04T09:42:01;17.30;35.70
80230;DHT22;69540;42.136;24.742;2024-02-04T09:44:26;17.40;36.60
80230;DHT22;69540;42.136;24.742;2024-02-04T09:46:53;17.30;35.80
80230;DHT22;69540;42.136;24.742;2024-02-04T09:49:20;17.30;35.90
80230;DHT22;69540;42.136;24.742;2024-02-04T09:51:46;17.50;35.70
80230;DHT22;69540;42.136;24.742;2024-02-04T09:54:15;17.60;35.40
80230;DHT22;69540;42.136;24.742;2024-02-04T09:56:42;17.70;35.90
80230;DHT22;69540;42.136;24.742;2024-02-04T09:59:08;17.70;35.20
80230;DHT22;69540;42.136;24.742;2024-02-04T10:01:35;17.70;35.30
80230;DHT22;69540;42.136;24.742;2024-02-04T10:04:01;17.70;35.10
80230;DHT22;69540;42.136;24.742;2024-02-04T10:06:27;17.70;35.40
80230;DHT22;69540;42.136;24.742;2024-02-04T10:08:53;17.70;35.40
80230;DHT22;69540;42.136;24.742;2024-02-04T10:11:19;17.60;35.50
80230;DHT22;69540;42.136;24.742;2024-02-04T10:13:46;17.60;35.60
80230;DHT22;69540;42.136;24.742;2024-02-04T10:16:13;17.60;35.80
80230;DHT22;69540;42.136;24.742;2024-02-04T10:18:44;17.70;35.70
80230;DHT22;69540;42.136;24.742;2024-02-04T10:21:18;17.70;35.60
80230;DHT22;69540;42.136;24.742;2024-02-04T10:23:48;17.80;35.50
80230;DHT22;69540;42.136;24.742;2024-02-04T10:26:14;17.70;35.00
80230;DHT22;69540;42.136;24.742;2024-02-04T10:28:40;17.80;33.90
80230;DHT22;69540;42.136;24.742;2024-02-04T10:31:08;17.90;34.10
80230;DHT22;69540;42.136;24.742;2024-02-04T10:33:35;17.80;34.40
80230;DHT22;69540;42.136;24.742;2024-02-04T10:36:01;17.80;34.70
80230;DHT22;69540;42.136;24.742;2024-02-04T10:38:27;17.80;34.80
80230;DHT22;69540;42.136;24.742;2024-02-04T10:40:54;17.70;34.80
80230;DHT22;69540;42.136;24.742;2024-02-04T10:43:21;17.70;34.30
80230;DHT22;69540;42.136;24.742;2024-02-04T10:45:47;17.70;34.10
80230;DHT22;69540;42.136;24.742;2024-02-04T10:48:15;17.70;34.50
80230;DHT22;69540;42.136;24.742;2024-02-04T10:50:46;17.80;34.40
80230;DHT22;69540;42.136;24.742;2024-02-04T10:53:14;17.80;34.50
80230;DHT22;69540;42.136;24.742;2024-02-04T10:55:43;17.90;34.30
80230;DHT22;69540;42.136;24.742;2024-02-04T10:58:12;18.00;34.20
80230;DHT22;69540;42.136;24.742;2024-02-04T11:00:40;18.10;35.10
80230;DHT22;69540;42.136;24.742;2024-02-04T11:03:06;18.10;34.10
80230;DHT22;69540;42.136;24.742;2024-02-04T11:05:33;18.10;33.70
80230;DHT22;69540;42.136;24.742;2024-02-04T11:08:02;18.10;33.70
80230;DHT22;69540;42.136;24.742;2024-02-04T11:10:30;18.10;33.70
80230;DHT22;69540;42.136;24.742;2024-02-04T11:12:58;18.10;33.90
80230;DHT22;69540;42.136;24.742;2024-02-04T11:15:29;18.10;33.70
80230;DHT22;69540;42.136;24.742;2024-02-04T11:26:10;18.00;34.00
80230;DHT22;69540;42.136;24.742;2024-02-04T11:28:37;18.10;33.70
80230;DHT22;69540;42.136;24.742;2024-02-04T11:31:04;18.20;33.70
80230;DHT22;69540;42.136;24.742;2024-02-04T11:33:31;18.40;33.40
80230;DHT22;69540;42.136;24.742;2024-02-04T11:36:06;18.40;33.30
80230;DHT22;69540;42.136;24.742;2024-02-04T11:38:38;18.40;33.10
80230;DHT22;69540;42.136;24.742;2024-02-04T11:41:04;18.60;32.80
80230;DHT22;69540;42.136;24.742;2024-02-04T11:43:32;18.70;32.70
80230;DHT22;69540;42.136;24.742;2024-02-04T11:45:58;18.70;32.80
80230;DHT22;69540;42.136;24.742;2024-02-04T11:48:35;18.70;32.90
80230;DHT22;69540;42.136;24.742;2024-02-04T11:51:05;18.70;32.90
80230;DHT22;69540;42.136;24.742;2024-02-04T11:53:30;18.70;32.40
80230;DHT22;69540;42.136;24.742;2024-02-04T11:56:03;18.80;32.40
80230;DHT22;69540;42.136;24.742;2024-02-04T11:58:29;19.00;31.60
80230;DHT22;69540;42.136;24.742;2024-02-04T12:00:57;19.10;31.30
80230;DHT22;69540;42.136;24.742;2024-02-04T12:03:32;19.10;31.70
80230;DHT22;69540;42.136;24.742;2024-02-04T12:05:59;19.20;31.70
80230;DHT22;69540;42.136;24.742;2024-02-04T12:08:27;19.20;31.40
80230;DHT22;69540;42.136;24.742;2024-02-04T12:10:53;19.20;31.70
80230;DHT22;69540;42.136;24.742;2024-02-04T12:13:19;19.20;31.80
80230;DHT22;69540;42.136;24.742;2024-02-04T12:15:48;19.10;33.00
80230;DHT22;69540;42.136;24.742;2024-02-04T12:18:14;19.10;31.90
80230;DHT22;69540;42.136;24.742;2024-02-04T12:20:41;19.10;31.70
80230;DHT22;69540;42.136;24.742;2024-02-04T12:23:07;19.10;31.90
80230;DHT22;69540;42.136;24.742;2024-02-04T12:25:36;19.00;32.10
80230;DHT22;69540;42.136;24.742;2024-02-04T12:28:02;19.00;32.20
80230;DHT22;69540;42.136;24.742;2024-02-04T12:30:30;19.10;32.20
80230;DHT22;69540;42.136;24.742;2024-02-04T12:33:00;19.00;32.10
80230;DHT22;69540;42.136;24.742;2024-02-04T12:35:27;19.00;32.10
80230;DHT22;69540;42.136;24.742;2024-02-04T12:37:57;18.90;32.60
80230;DHT22;69540;42.136;24.742;2024-02-04T12:40:24;18.90;32.80
80230;DHT22;69540;42.136;24.742;2024-02-04T12:43:00;19.00;32.60
80230;DHT22;69540;42.136;24.742;2024-02-04T12:45:30;19.00;32.50
80230;DHT22;69540;42.136;24.742;2024-02-04T12:47:57;18.70;33.00
80230;DHT22;69540;42.136;24.742;2024-02-04T12:50:24;18.80;33.10
80230;DHT22;69540;42.136;24.742;2024-02-04T12:53:03;18.80;33.30
80230;DHT22;69540;42.136;24.742;2024-02-04T12:55:33;18.80;33.10
80230;DHT22;69540;42.136;24.742;2024-02-04T12:58:17;18.90;33.10
80230;DHT22;69540;42.136;24.742;2024-02-04T13:00:43;18.90;33.20
80230;DHT22;69540;42.136;24.742;2024-02-04T13:03:09;18.90;33.10
80230;DHT22;69540;42.136;24.742;2024-02-04T13:05:36;18.90;33.00
80230;DHT22;69540;42.136;24.742;2024-02-04T13:08:04;19.00;33.10
80230;DHT22;69540;42.136;24.742;2024-02-04T13:10:34;19.10;33.10
80230;DHT22;69540;42.136;24.742;2024-02-04T13:13:04;19.00;33.00
80230;DHT22;69540;42.136;24.742;2024-02-04T13:15:42;19.00;32.90
80230;DHT22;69540;42.136;24.742;2024-02-04T13:18:12;19.10;32.90
80230;DHT22;69540;42.136;24.742;2024-02-04T13:20:40;19.00;32.80
80230;DHT22;69540;42.136;24.742;2024-02-04T13:23:07;19.10;32.90
80230;DHT22;69540;42.136;24.742;2024-02-04T13:25:33;19.20;33.00
80230;DHT22;69540;42.136;24.742;2024-02-04T13:27:59;19.20;32.70
80230;DHT22;69540;42.136;24.742;2024-02-04T13:30:25;19.10;32.80
80230;DHT22;69540;42.136;24.742;2024-02-04T13:32:51;19.20;32.70
80230;DHT22;69540;42.136;24.742;2024-02-04T13:35:17;19.20;32.40
80230;DHT22;69540;42.136;24.742;2024-02-04T13:37:47;19.20;32.50
80230;DHT22;69540;42.136;24.742;2024-02-04T13:40:14;19.20;32.50
80230;DHT22;69540;42.136;24.742;2024-02-04T13:42:41;19.10;32.40
80230;DHT22;69540;42.136;24.742;2024-02-04T13:45:07;19.10;32.20
80230;DHT22;69540;42.136;24.742;2024-02-04T13:47:34;19.00;32.60
80230;DHT22;69540;42.136;24.742;2024-02-04T13:50:00;18.90;32.70
80230;DHT22;69540;42.136;24.742;2024-02-04T13:52:26;18.90;32.70
80230;DHT22;69540;42.136;24.742;2024-02-04T13:54:51;18.80;32.90
80230;DHT22;69540;42.136;24.742;2024-02-04T13:57:17;18.70;32.90
80230;DHT22;69540;42.136;24.742;2024-02-04T13:59:43;18.70;33.00
80230;DHT22;69540;42.136;24.742;2024-02-04T14:02:09;18.70;33.20
80230;DHT22;69540;42.136;24.742;2024-02-04T14:04:35;18.60;33.30
80230;DHT22;69540;42.136;24.742;2024-02-04T14:07:01;18.50;33.80
80230;DHT22;69540;42.136;24.742;2024-02-04T14:09:27;18.40;33.80
80230;DHT22;69540;42.136;24.742;2024-02-04T14:11:53;18.40;33.70
80230;DHT22;69540;42.136;24.742;2024-02-04T14:14:22;18.30;34.00
80230;DHT22;69540;42.136;24.742;2024-02-04T14:16:47;18.20;34.00
80230;DHT22;69540;42.136;24.742;2024-02-04T14:19:13;18.10;34.50
80230;DHT22;69540;42.136;24.742;2024-02-04T14:21:40;18.00;34.70
80230;DHT22;69540;42.136;24.742;2024-02-04T14:24:06;17.90;34.70
80230;DHT22;69540;42.136;24.742;2024-02-04T14:26:32;17.90;34.80
80230;DHT22;69540;42.136;24.742;2024-02-04T14:28:58;17.80;34.80
80230;DHT22;69540;42.136;24.742;2024-02-04T14:31:24;17.80;35.00
80230;DHT22;69540;42.136;24.742;2024-02-04T14:33:50;17.70;35.20
80230;DHT22;69540;42.136;24.742;2024-02-04T14:36:16;17.70;35.30
80230;DHT22;69540;42.136;24.742;2024-02-04T14:38:42;17.70;35.30
80230;DHT22;69540;42.136;24.742;2024-02-04T14:41:07;17.60;35.50
80230;DHT22;69540;42.136;24.742;2024-02-04T14:43:34;17.50;35.20
80230;DHT22;69540;42.136;24.742;2024-02-04T14:46:00;17.50;35.10
80230;DHT22;69540;42.136;24.742;2024-02-04T14:48:26;17.60;35.10
80230;DHT22;69540;42.136;24.742;2024-02-04T14:50:51;17.50;35.00
80230;DHT22;69540;42.136;24.742;2024-02-04T14:53:17;17.40;35.10
80230;DHT22;69540;42.136;24.742;2024-02-04T14:55:43;17.40;35.30
80230;DHT22;69540;42.136;24.742;2024-02-04T14:58:09;17.30;35.30
80230;DHT22;69540;42.136;24.742;2024-02-04T15:00:34;17.30;35.50
80230;DHT22;69540;42.136;24.742;2024-02-04T15:03:00;17.30;35.50
80230;DHT22;69540;42.136;24.742;2024-02-04T15:05:26;17.30;35.60
80230;DHT22;69540;42.136;24.742;2024-02-04T15:07:51;17.30;35.60
80230;DHT22;69540;42.136;24.742;2024-02-04T15:10:18;17.30;35.60
80230;DHT22;69540;42.136;24.742;2024-02-04T15:12:44;17.30;35.70
80230;DHT22;69540;42.136;24.742;2024-02-04T15:15:10;17.20;35.80
80230;DHT22;69540;42.136;24.742;2024-02-04T15:17:36;17.30;35.70
80230;DHT22;69540;42.136;24.742;2024-02-04T15:20:03;17.30;35.80
80230;DHT22;69540;42.136;24.742;2024-02-04T15:22:29;17.30;35.90